Sand Draw, Wyoming
Current Conditions -  °F | °C
As of 4:53 PM on Saturday 20 Dec 2014 (Local Time) from KLND Reporting Station
Haze Haze  
Wind Chill: 17°   Ceiling: Unl
Heat Index: 23°   Visibility: 6mi
Dew Point: 19°   Wind: 5mph
Humidity: 85%   Direction: 310°NW
Pressure: 29.88"   Gusts: NA
Location:  43.1005°N, 108.934°W
Report Text: KLND 202353Z AUTO 31004KT 6SM BR CLR M05/M07 A2988 RMK AO2 SLP178 T10501072 11006 21067 56006
Loading
Personal Weather Stations






























Interactive Weather Map New forecast layout! Learn more

10-Day Weather Forecast

Advertisements
Track Severe Weather on mobile